Terminal Aerodrome Forecast
Issued by NWS

Home | Current Version | Previous Version | Text Only | Print | Product List | Glossary On
Versions: 1 2 3 4 5 6 7 8 9 10 11 12 13 14 15 16 17 18 19 20 21 22
000
FTUS45 KBOU 020530
TAFAPA
TAF
KAPA 020530Z 0206/0306 24005KT P6SM SCT090 BKN150
     FM020800 18005KT P6SM SCT070 BKN080
     FM021500 13005KT P6SM SCT035 BKN050 OVC080
     FM021800 11006KT P6SM VCSH SCT035 OVC050
     FM022100 09007KT P6SM VCSH BKN050 OVC090
     FM030200 15005KT P6SM SCT050 BKN090=

USA.gov is the U.S. government's official web portal to all federal, state and local government web resources and services.